Terminal Aerodrome Forecast
Issued by NWS

Home | Current Version | Previous Version | Text Only | Print | Product List | Glossary On
Versions: 1 2 3 4 5 6 7 8 9 10 11 12 13 14 15 16
000
FTUS42 KJAX 312300 RRA
TAFCRG
TAF
KCRG 312344Z 0100/0124 13008KT P6SM FEW050 SCT250
     FM010300 16003KT P6SM FEW050 SCT250
     FM011400 18005KT P6SM FEW030 SCT250
     FM011800 12011KT P6SM VCSH SCT040 BKN250=

USA.gov is the U.S. government's official web portal to all federal, state and local government web resources and services.